Home > Products > Valid Products > TAF

000
FTUS43 KABR 100811 AAB
TAFABR
TAF AMD
KABR 100811Z 1008/1106 08009KT 1SM -SN OVC015
     FM101600 10010KT 3SM BR OVC008
     FM101700 10007KT 4SM BR OVC015=



000
FTUS43 KABR 100811 AAB
TAFABR
TAF AMD
KABR 100811Z 1008/1106 08009KT 1SM -SN OVC015
     FM101600 10010KT 3SM BR OVC008
     FM101700 10007KT 4SM BR OVC015=



000
FTUS43 KABR 100710 AAA
TAFABR
TAF AMD
KABR 100710Z 1007/1106 08009KT 5SM -SN OVC035
      TEMPO 1008/1010 2SM -SN
     FM101000 10010KT 1 1/2SM -SN BR OVC015
     FM101600 10010KT 3SM BR OVC008
     FM101700 10007KT 4SM BR OVC015=



000
FTUS43 KABR 100528
TAFABR
TAF
KABR 100528Z 1006/1106 07011KT P6SM OVC080
     FM100800 09006KT 6SM BR OVC035
     FM101000 10010KT 1 1/2SM -SN BR OVC015
     FM101600 10010KT 3SM BR OVC008
     FM101700 10007KT 4SM BR OVC015=



000
FTUS43 KABR 100528
TAFMBG
TAF
KMBG 100528Z 1006/1106 VRB06KT P6SM BKN045 OVC080
     FM101000 14010KT 4SM BR OVC015
     FM110200 VRB03KT P6SM OVC025=



000
FTUS43 KABR 100528
TAFATY
TAF
KATY 100528Z 1006/1106 VRB04KT P6SM SCT045 OVC100
     FM101100 10006KT 3SM BR OVC015
     FM101200 12005KT 2SM -SN OVC009
     FM101800 12009KT 3SM BR OVC007
     FM102300 VRB05KT P6SM OVC015=



000
FTUS43 KABR 100528
TAFPIR
TAF
KPIR 100528Z 1006/1106 VRB03KT P6SM OVC080
     FM101900 04007KT P6SM OVC025=



000
FTUS43 KABR 092332
TAFABR
TAF
KABR 092332Z 1000/1024 09008KT P6SM BKN100
     FM100800 09006KT 6SM BR OVC030
     FM101000 12010KT 1 1/2SM -SN BR OVC015
     FM101600 12010KT 3SM BR OVC008
     FM101700 10007KT 4SM BR OVC015=



000
FTUS43 KABR 092332
TAFMBG
TAF
KMBG 092332Z 1000/1024 VRB03KT P6SM OVC080
     FM101000 14010KT 4SM BR OVC015=



000
FTUS43 KABR 092332
TAFATY
TAF
KATY 092332Z 1000/1024 33006KT P6SM OVC050
     FM101100 10006KT 3SM BR OVC015
     FM101200 12005KT 2SM -SN OVC009
     FM101800 12009KT 3SM BR OVC007
     FM102300 VRB05KT P6SM OVC006=



000
FTUS43 KABR 092332
TAFABR
TAF
KABR 092332Z 1000/1024 09008KT P6SM BKN100
     FM100800 09006KT 6SM BR OVC030
     FM101000 12010KT 1 1/2SM -SN BR OVC015
     FM101600 12010KT 3SM BR OVC008
     FM101700 10007KT 4SM BR OVC015=



000
FTUS43 KABR 092332
TAFPIR
TAF
KPIR 092332Z 1000/1024 VRB05KT P6SM OVC070
     FM101700 04007KT P6SM OVC025=



000
FTUS43 KABR 092332
TAFATY
TAF
KATY 092332Z 1000/1024 33006KT P6SM OVC050
     FM101100 10006KT 3SM BR OVC015
     FM101200 12005KT 2SM -SN OVC009
     FM101800 12009KT 3SM BR OVC007
     FM102300 VRB05KT P6SM OVC006=



000
FTUS43 KABR 092332
TAFPIR
TAF
KPIR 092332Z 1000/1024 VRB05KT P6SM OVC070
     FM101700 04007KT P6SM OVC025=



000
FTUS43 KABR 092332
TAFMBG
TAF
KMBG 092332Z 1000/1024 VRB03KT P6SM OVC080
     FM101000 14010KT 4SM BR OVC015=



000
FTUS43 KABR 091735
TAFABR
TAF
KABR 091735Z 0918/1018 31008KT P6SM BKN050
     FM100700 09006KT 6SM BR OVC030 PROB30 1008/1010 2SM -SN
     FM101000 13010KT 1 1/2SM -SN BR OVC015
     FM101600 13010KT 3SM -SN OVC008=



000
FTUS43 KABR 091735
TAFPIR
TAF
KPIR 091735Z 0918/1018 22006KT P6SM BKN070
     FM100100 12005KT 3SM BR OVC009
     FM100900 14006KT 3SM BR OVC007
     FM101400 11006KT 6SM BR OVC009=



000
FTUS43 KABR 091735
TAFMBG
TAF
KMBG 091735Z 0918/1018 21009KT P6SM OVC060
     FM100700 14005KT 4SM -SN OVC015
     FM101000 14010KT 4SM BR OVC007
     FM101500 16007KT 6SM BR OVC009=



000
FTUS43 KABR 091735
TAFATY
TAF
KATY 091735Z 0918/1018 32009KT P6SM OVC060
     FM101100 10006KT 3SM BR OVC025
     FM101200 12005KT 2SM -SN OVC015
     FM101700 14009KT 1SM -SN OVC007=



000
FTUS43 KABR 091735
TAFABR
TAF
KABR 091735Z 0918/1018 31008KT P6SM BKN050
     FM100700 09006KT 6SM BR OVC030 PROB30 1008/1010 2SM -SN
     FM101000 13010KT 1 1/2SM -SN BR OVC015
     FM101600 13010KT 3SM -SN OVC008=



000
FTUS43 KABR 091735
TAFATY
TAF
KATY 091735Z 0918/1018 32009KT P6SM OVC060
     FM101100 10006KT 3SM BR OVC025
     FM101200 12005KT 2SM -SN OVC015
     FM101700 14009KT 1SM -SN OVC007=



000
FTUS43 KABR 091735
TAFPIR
TAF
KPIR 091735Z 0918/1018 22006KT P6SM BKN070
     FM100100 12005KT 3SM BR OVC009
     FM100900 14006KT 3SM BR OVC007
     FM101400 11006KT 6SM BR OVC009=



000
FTUS43 KABR 091735
TAFMBG
TAF
KMBG 091735Z 0918/1018 21009KT P6SM OVC060
     FM100700 14005KT 4SM -SN OVC015
     FM101000 14010KT 4SM BR OVC007
     FM101500 16007KT 6SM BR OVC009=



000
FTUS43 KABR 091618 AAA
TAFMBG
TAF AMD
KMBG 091618Z 0916/1012 VRB06KT P6SM OVC060
     FM100800 14010KT P6SM OVC025=



000
FTUS43 KABR 091140
TAFABR
TAF
KABR 091140Z 0912/1012 36007KT P6SM OVC060
     FM100400 08006KT P6SM OVC050
     FM101000 14006KT 2SM -SN OVC025=



000
FTUS43 KABR 091140
TAFATY
TAF
KATY 091140Z 0912/1012 35013KT P6SM OVC060
     FM100600 04006KT P6SM OVC050=



000
FTUS43 KABR 091140
TAFPIR
TAF
KPIR 091140Z 0912/1012 04006KT P6SM OVC060
     FM091800 12005KT P6SM OVC040=



000
FTUS43 KABR 091140
TAFMBG
TAF
KMBG 091140Z 0912/1012 03006KT P6SM OVC060
     FM091700 12007KT P6SM OVC030=



000
FTUS43 KABR 091030 AAA
TAFATY
TAF AMD
KATY 091030Z 0911/1006 36013KT P6SM BKN060
     FM092300 35009KT P6SM OVC120=



000
FTUS43 KABR 091030 AAA
TAFATY
TAF AMD
KATY 091030Z 0911/1006 36013KT P6SM BKN060
     FM092300 35009KT P6SM OVC120=



000
FTUS43 KABR 091029 AAB
TAFPIR
TAF AMD
KPIR 091029Z 0910/1006 01009KT P6SM OVC060
     FM091700 VRB04KT P6SM OVC025=



000
FTUS43 KABR 091029 AAB
TAFPIR
TAF AMD
KPIR 091029Z 0910/1006 01009KT P6SM OVC060
     FM091700 VRB04KT P6SM OVC025=



000
FTUS43 KABR 091028 AAB
TAFABR
TAF AMD
KABR 091028Z 0910/1006 36010KT P6SM BKN060
     FM092300 03007KT P6SM OVC120=



000
FTUS43 KABR 091028 AAB
TAFABR
TAF AMD
KABR 091028Z 0910/1006 36010KT P6SM BKN060
     FM092300 03007KT P6SM OVC120=



000
FTUS43 KABR 090706 AAA
TAFPIR
TAF AMD
KPIR 090706Z 0907/1006 01009KT P6SM OVC120
     FM091300 VRB04KT P6SM OVC050
     FM091700 VRB04KT P6SM OVC025=



000
FTUS43 KABR 090522
TAFPIR
TAF
KPIR 090522Z 0906/1006 31009KT P6SM OVC120
     FM091300 VRB04KT P6SM OVC050
     FM091700 VRB04KT P6SM OVC025=



000
FTUS43 KABR 090522
TAFATY
TAF
KATY 090522Z 0906/1006 34017KT P6SM BKN150
      TEMPO 0906/0907 BKN011
     FM092300 35009KT P6SM OVC120=



000
FTUS43 KABR 090522
TAFABR
TAF
KABR 090522Z 0906/1006 35010KT P6SM BKN250
     FM092300 03007KT P6SM OVC120=



000
FTUS43 KABR 090522
TAFMBG
TAF
KMBG 090522Z 0906/1006 36015KT P6SM FEW070 OVC120
     FM091200 VRB04KT P6SM OVC050
     FM091700 VRB04KT P6SM OVC025=



000
FTUS43 KABR 090509 AAB
TAFMBG
TAF AMD
KMBG 090509Z 0905/0924 36015KT P6SM OVC120
     FM091200 VRB04KT P6SM OVC050
     FM091700 VRB04KT P6SM OVC025=



000
FTUS43 KABR 090406 AAB
TAFATY
TAF AMD
KATY 090406Z 0904/0924 34017KT P6SM BKN150
      TEMPO 0904/0907 BKN011
     FM092300 35009KT P6SM OVC120=



000
FTUS43 KABR 090406 AAA
TAFPIR
TAF AMD
KPIR 090406Z 0904/0924 31009KT P6SM OVC120
     FM091300 VRB04KT P6SM OVC050
     FM091700 VRB04KT P6SM OVC025=



000
FTUS43 KABR 090406 AAB
TAFATY
TAF AMD
KATY 090406Z 0904/0924 34017KT P6SM BKN150
      TEMPO 0904/0907 BKN011
     FM092300 35009KT P6SM OVC120=



000
FTUS43 KABR 090406 AAA
TAFPIR
TAF AMD
KPIR 090406Z 0904/0924 31009KT P6SM OVC120
     FM091300 VRB04KT P6SM OVC050
     FM091700 VRB04KT P6SM OVC025=



000
FTUS43 KABR 090027 AAA
TAFMBG
TAF AMD
KMBG 090027Z 0900/0924 34015KT P6SM OVC120
     FM091200 VRB04KT P6SM OVC050
     FM091700 VRB04KT P6SM OVC025=



000
FTUS43 KABR 090027 AAA
TAFATY
TAF AMD
KATY 090027Z 0900/0924 34017KT P6SM BKN150
     FM092300 35009KT P6SM OVC120=



000
FTUS43 KABR 090027 AAA
TAFMBG
TAF AMD
KMBG 090027Z 0900/0924 34015KT P6SM OVC120
     FM091200 VRB04KT P6SM OVC050
     FM091700 VRB04KT P6SM OVC025=



000
FTUS43 KABR 090027 AAA
TAFATY
TAF AMD
KATY 090027Z 0900/0924 34017KT P6SM BKN150
     FM092300 35009KT P6SM OVC120=



000
FTUS43 KABR 082327
TAFPIR
TAF
KPIR 082327Z 0900/0924 34015KT P6SM OVC120
     FM091300 VRB04KT P6SM OVC050
     FM091700 VRB04KT P6SM OVC025=



000
FTUS43 KABR 082327
TAFABR
TAF
KABR 082327Z 0900/0924 35015KT P6SM BKN250
     FM090300 35010KT P6SM BKN250
     FM092300 03007KT P6SM OVC120=



000
FTUS43 KABR 082327
TAFATY
TAF
KATY 082327Z 0900/0924 34020G29KT P6SM SCT250
     FM090200 34017KT P6SM BKN150
     FM092300 35009KT P6SM OVC120=



000
FTUS43 KABR 082327
TAFMBG
TAF
KMBG 082327Z 0900/0924 34015G22KT P6SM OVC120
     FM090200 34015KT P6SM OVC120
     FM091200 VRB04KT P6SM OVC050
     FM091700 VRB04KT P6SM OVC025=



000
FTUS43 KABR 082327
TAFMBG
TAF
KMBG 082327Z 0900/0924 34015G22KT P6SM OVC120
     FM090200 34015KT P6SM OVC120
     FM091200 VRB04KT P6SM OVC050
     FM091700 VRB04KT P6SM OVC025=



000
FTUS43 KABR 082327
TAFPIR
TAF
KPIR 082327Z 0900/0924 34015KT P6SM OVC120
     FM091300 VRB04KT P6SM OVC050
     FM091700 VRB04KT P6SM OVC025=



000
FTUS43 KABR 082327
TAFABR
TAF
KABR 082327Z 0900/0924 35015KT P6SM BKN250
     FM090300 35010KT P6SM BKN250
     FM092300 03007KT P6SM OVC120=



000
FTUS43 KABR 082327
TAFATY
TAF
KATY 082327Z 0900/0924 34020G29KT P6SM SCT250
     FM090200 34017KT P6SM BKN150
     FM092300 35009KT P6SM OVC120=



000
FTUS43 KABR 082305 AAA
TAFPIR
TAF AMD
KPIR 082305Z 0823/0918 33015G22KT P6SM SKC
     FM090000 33008KT P6SM OVC100
     FM091300 VRB04KT P6SM OVC050=



000
FTUS43 KABR 081910 AAA
TAFABR
TAF AMD
KABR 081910Z 0819/0918 34021G31KT P6SM SKC
     FM082200 35017G23KT P6SM BKN250
     FM090300 35010KT P6SM BKN250=



000
FTUS43 KABR 081910 AAA
TAFABR
TAF AMD
KABR 081910Z 0819/0918 34021G31KT P6SM SKC
     FM082200 35017G23KT P6SM BKN250
     FM090300 35010KT P6SM BKN250=



000
FTUS43 KABR 081723
TAFATY
TAF
KATY 081723Z 0818/0918 34027G35KT P6SM OVC023
      TEMPO 0818/0822 2SM -SN
     FM082200 34020G29KT P6SM SCT250
     FM090200 34017KT P6SM BKN150=



000
FTUS43 KABR 081723
TAFMBG
TAF
KMBG 081723Z 0818/0918 33022G29KT P6SM SKC
     FM090000 34012KT P6SM OVC100
     FM091200 VRB04KT P6SM OVC050=



000
FTUS43 KABR 081723
TAFABR
TAF
KABR 081723Z 0818/0918 35023G34KT P6SM SCT030
      TEMPO 0818/0821 BKN030
     FM082200 35017G23KT P6SM BKN250
     FM090300 35010KT P6SM BKN250=



000
FTUS43 KABR 081723
TAFPIR
TAF
KPIR 081723Z 0818/0918 33023G29KT P6SM SKC
     FM090000 33008KT P6SM OVC100
     FM091300 VRB04KT P6SM OVC050=



000
FTUS43 KABR 081542 AAA
TAFATY
TAF AMD
KATY 081542Z 0816/0912 35026G33KT P6SM -SN OVC025
      TEMPO 0816/0818 2SM -SN
     FM081900 34022G32KT P6SM SCT250
     FM090200 34014KT P6SM BKN150=



000
FTUS43 KABR 081542 AAA
TAFATY
TAF AMD
KATY 081542Z 0816/0912 35026G33KT P6SM -SN OVC025
      TEMPO 0816/0818 2SM -SN
     FM081900 34022G32KT P6SM SCT250
     FM090200 34014KT P6SM BKN150=



000
FTUS43 KABR 081221 CCA
TAFATY
TAF COR
KATY 081221Z 0812/0912 34024G33KT P6SM -SN OVC025
      TEMPO 0812/0816 2SM -SN
     FM081900 34022G32KT P6SM SCT250
     FM090200 34014KT P6SM BKN150=



000
FTUS43 KABR 081138
TAFABR
TAF
KABR 081138Z 0812/0912 35018G28KT P6SM OVC040
      TEMPO 0812/0814 5SM -SN OVC030
     FM081600 34020G30KT P6SM SCT250
     FM090000 34011KT P6SM BKN150=



000
FTUS43 KABR 081138
TAFATY
TAF
KATY 081138Z 0812/0912 34024G33KT P6SM OVC025
      TEMPO 0812/0816 3SM -SN
     FM081900 34022G32KT P6SM SCT250
     FM090200 34014KT P6SM BKN150=



000
FTUS43 KABR 081138
TAFPIR
TAF
KPIR 081138Z 0812/0912 33019G27KT P6SM BKN200
     FM090000 01006KT P6SM OVC080=



000
FTUS43 KABR 081138
TAFMBG
TAF
KMBG 081138Z 0812/0912 33018G28KT P6SM BKN150
     FM090000 02007KT P6SM OVC080=



000
FTUS43 KABR 081138
TAFATY
TAF
KATY 081138Z 0812/0912 34024G33KT P6SM OVC025
      TEMPO 0812/0816 3SM -SN
     FM081900 34022G32KT P6SM SCT250
     FM090200 34014KT P6SM BKN150=



000
FTUS43 KABR 081138
TAFPIR
TAF
KPIR 081138Z 0812/0912 33019G27KT P6SM BKN200
     FM090000 01006KT P6SM OVC080=



000
FTUS43 KABR 081138
TAFABR
TAF
KABR 081138Z 0812/0912 35018G28KT P6SM OVC040
      TEMPO 0812/0814 5SM -SN OVC030
     FM081600 34020G30KT P6SM SCT250
     FM090000 34011KT P6SM BKN150=



000
FTUS43 KABR 081138
TAFMBG
TAF
KMBG 081138Z 0812/0912 33018G28KT P6SM BKN150
     FM090000 02007KT P6SM OVC080=



000
FTUS43 KABR 081005 CCA
TAFABR
TAF COR
KABR 081005Z 0810/0906 34020G30KT P6SM -SN OVC040
      TEMPO 0810/0812 5SM -SN OVC030
     FM081400 35020G28KT P6SM OVC040
     FM081700 34020G30KT P6SM BKN250
     FM090100 34013KT P6SM SKC=



000
FTUS43 KABR 081005 CCA
TAFABR
TAF COR
KABR 081005Z 0810/0906 34020G30KT P6SM -SN OVC040
      TEMPO 0810/0812 5SM -SN OVC030
     FM081400 35020G28KT P6SM OVC040
     FM081700 34020G30KT P6SM BKN250
     FM090100 34013KT P6SM SKC=



000
FTUS43 KABR 081005 AAB
TAFATY
TAF AMD
KATY 081005Z 0810/0906 34024G35KT P6SM -SN OVC025
      TEMPO 0810/0814 3SM -SN
     FM081500 34018G25KT P6SM OVC050
     FM090100 34015KT P6SM BKN250=



000
FTUS43 KABR 081002 AAB
TAFABR
TAF AMD
KABR 081002Z 0810/0906 34020G30KT P6SM -SN OVC040
      TEMPO 0810/0814 5SM -SN OVC030
     FM081400 35020G28KT P6SM OVC040
     FM081700 34020G30KT P6SM BKN250
     FM090100 34013KT P6SM SKC=



000
FTUS43 KABR 081002 AAB
TAFABR
TAF AMD
KABR 081002Z 0810/0906 34020G30KT P6SM -SN OVC040
      TEMPO 0810/0814 5SM -SN OVC030
     FM081400 35020G28KT P6SM OVC040
     FM081700 34020G30KT P6SM BKN250
     FM090100 34013KT P6SM SKC=



000
FTUS43 KABR 080754 AAA
TAFATY
TAF AMD
KATY 080754Z 0808/0906 34024G35KT 3SM -SN OVC025
      TEMPO 0808/0812 1 1/2SM -SN
     FM081500 34018G25KT P6SM OVC050
     FM090100 34015KT P6SM BKN250=



000
FTUS43 KABR 080642 AAA
TAFABR
TAF AMD
KABR 080642Z 0807/0906 34023G32KT P6SM -SN OVC030
     FM081200 35020G28KT P6SM OVC040
     FM081700 34020G30KT P6SM BKN250
     FM090100 34013KT P6SM SKC=



000
FTUS43 KABR 080642 AAA
TAFABR
TAF AMD
KABR 080642Z 0807/0906 34023G32KT P6SM -SN OVC030
     FM081200 35020G28KT P6SM OVC040
     FM081700 34020G30KT P6SM BKN250
     FM090100 34013KT P6SM SKC=



000
FTUS43 KABR 080525
TAFATY
TAF
KATY 080525Z 0806/0906 34022G32KT 4SM -SN OVC025
     FM081500 34018G25KT P6SM OVC050
     FM090100 34015KT P6SM BKN250=



000
FTUS43 KABR 080525
TAFABR
TAF
KABR 080525Z 0806/0906 36018G25KT P6SM OVC030
     FM080900 33020G27KT P6SM OVC050
     FM081900 34020G30KT P6SM BKN250
     FM090100 34013KT P6SM BKN250=



000
FTUS43 KABR 080525
TAFMBG
TAF
KMBG 080525Z 0806/0906 33018G28KT P6SM OVC040
     FM082200 33010KT P6SM BKN250=



000
FTUS43 KABR 080525
TAFPIR
TAF
KPIR 080525Z 0806/0906 32025G34KT P6SM OVC050
     FM081000 32018G26KT P6SM OVC050
     FM082200 33009KT P6SM BKN250=



000
FTUS43 KABR 080525
TAFATY
TAF
KATY 080525Z 0806/0906 34022G32KT 4SM -SN OVC025
     FM081500 34018G25KT P6SM OVC050
     FM090100 34015KT P6SM BKN250=



000
FTUS43 KABR 080525
TAFMBG
TAF
KMBG 080525Z 0806/0906 33018G28KT P6SM OVC040
     FM082200 33010KT P6SM BKN250=



000
FTUS43 KABR 080525
TAFPIR
TAF
KPIR 080525Z 0806/0906 32025G34KT P6SM OVC050
     FM081000 32018G26KT P6SM OVC050
     FM082200 33009KT P6SM BKN250=



000
FTUS43 KABR 080525
TAFABR
TAF
KABR 080525Z 0806/0906 36018G25KT P6SM OVC030
     FM080900 33020G27KT P6SM OVC050
     FM081900 34020G30KT P6SM BKN250
     FM090100 34013KT P6SM BKN250=



000
FTUS43 KABR 080416 AAB
TAFMBG
TAF AMD
KMBG 080416Z 0804/0824 33029G44KT P6SM OVC050
     FM080900 33023G28KT P6SM SCT050
     FM081600 33020G30KT P6SM BKN250=



000
FTUS43 KABR 080416 AAC
TAFATY
TAF AMD
KATY 080416Z 0804/0824 34022G30KT P6SM OVC040
     FM080900 34026G37KT 3SM -SN BLSN OVC025
     FM081800 34025G32KT P6SM BKN250=



000
FTUS43 KABR 080416 AAB
TAFMBG
TAF AMD
KMBG 080416Z 0804/0824 33029G44KT P6SM OVC050
     FM080900 33023G28KT P6SM SCT050
     FM081600 33020G30KT P6SM BKN250=



000
FTUS43 KABR 080415 AAC
TAFABR
TAF AMD
KABR 080415Z 0804/0824 35020G30KT P6SM OVC025
      TEMPO 0804/0808 -SN
     FM080900 33020G27KT P6SM OVC050
     FM081900 34020G30KT P6SM BKN250=



000
FTUS43 KABR 080312 AAB
TAFABR
TAF AMD
KABR 080312Z 0803/0824 35016KT P6SM OVC030
     FM080900 33025G36KT 5SM -SN BLSN OVC050
     FM081900 34020G30KT P6SM BKN250=



000
FTUS43 KABR 080216 AAA
TAFPIR
TAF AMD
KPIR 080216Z 0802/0824 33024G31KT P6SM SKC
     FM080400 32021G30KT P6SM SCT060
     FM081500 32018G26KT P6SM BKN250=



000
FTUS43 KABR 080215 AAB
TAFATY
TAF AMD
KATY 080215Z 0802/0824 33024G32KT 5SM -SN BLSN OVC035
     FM080500 34026G37KT 3SM -SN BLSN OVC025
     FM081800 34025G32KT P6SM BKN250=



000
FTUS43 KABR 080058 AAA
TAFATY
TAF AMD
KATY 080058Z 0801/0824 33024G34KT 1SM -SN BLSN OVC035
     FM080500 34026G37KT 5SM -SN BLSN OVC025
     FM081800 34025G32KT P6SM BKN250=



000
FTUS43 KABR 080058 AAA
TAFATY
TAF AMD
KATY 080058Z 0801/0824 33024G34KT 1SM -SN BLSN OVC035
     FM080500 34026G37KT 5SM -SN BLSN OVC025
     FM081800 34025G32KT P6SM BKN250=



000
FTUS43 KABR 080057 AAA
TAFMBG
TAF AMD
KMBG 080057Z 0801/0824 33025G34KT P6SM OVC060
     FM080400 33023G28KT P6SM SCT050
     FM081600 33020G30KT P6SM BKN250=



000
FTUS43 KABR 080057 AAA
TAFMBG
TAF AMD
KMBG 080057Z 0801/0824 33025G34KT P6SM OVC060
     FM080400 33023G28KT P6SM SCT050
     FM081600 33020G30KT P6SM BKN250=



000
FTUS43 KABR 080055 AAA
TAFABR
TAF AMD
KABR 080055Z 0801/0824 33030G38KT P6SM OVC035
     FM080900 33025G36KT 5SM -SN BLSN OVC050
     FM081900 34020G30KT P6SM BKN250=



000
FTUS43 KABR 080055 AAA
TAFABR
TAF AMD
KABR 080055Z 0801/0824 33030G38KT P6SM OVC035
     FM080900 33025G36KT 5SM -SN BLSN OVC050
     FM081900 34020G30KT P6SM BKN250=



000
FTUS43 KABR 072325
TAFATY
TAF
KATY 072325Z 0800/0824 33029G42KT 4SM -SN BLSN OVC030
     FM080500 34026G37KT 5SM -SN BLSN OVC025
     FM081800 34025G32KT P6SM BKN250=



000
FTUS43 KABR 072325
TAFPIR
TAF
KPIR 072325Z 0800/0824 33031G43KT P6SM BKN060
     FM080400 32026G35KT P6SM SCT060
     FM081500 32018G26KT P6SM BKN250=



000
FTUS43 KABR 072325
TAFABR
TAF
KABR 072325Z 0800/0824 33025G34KT P6SM VCSH OVC025
     FM080900 33025G36KT 5SM -SN BLSN OVC050
     FM081900 34020G30KT P6SM BKN250=



000
FTUS43 KABR 072325
TAFABR
TAF
KABR 072325Z 0800/0824 33025G34KT P6SM VCSH OVC025
     FM080900 33025G36KT 5SM -SN BLSN OVC050
     FM081900 34020G30KT P6SM BKN250=



000
FTUS43 KABR 072325
TAFMBG
TAF
KMBG 072325Z 0800/0824 33033G47KT P6SM BKN050
     FM080400 33023G28KT P6SM SCT050
     FM081600 33020G30KT P6SM BKN250=



000
FTUS43 KABR 072325
TAFPIR
TAF
KPIR 072325Z 0800/0824 33031G43KT P6SM BKN060
     FM080400 32026G35KT P6SM SCT060
     FM081500 32018G26KT P6SM BKN250=



000
FTUS43 KABR 072325
TAFATY
TAF
KATY 072325Z 0800/0824 33029G42KT 4SM -SN BLSN OVC030
     FM080500 34026G37KT 5SM -SN BLSN OVC025
     FM081800 34025G32KT P6SM BKN250=



000
FTUS43 KABR 072325
TAFMBG
TAF
KMBG 072325Z 0800/0824 33033G47KT P6SM BKN050
     FM080400 33023G28KT P6SM SCT050
     FM081600 33020G30KT P6SM BKN250=



000
FTUS43 KABR 072151 AAA
TAFMBG
TAF AMD
KMBG 072151Z 0722/0818 33033G46KT P6SM BKN035
     FM080400 33029G40KT P6SM SCT035
     FM080700 33023G32KT P6SM SCT035=



000
FTUS43 KABR 072057 AAA
TAFATY
TAF AMD
KATY 072057Z 0721/0818 32029G41KT 5SM -SN BLSN OVC015
      TEMPO 0722/0802 2SM -SN BLSN
     FM080500 34026G37KT 5SM -SN BLSN OVC015
     FM081500 34026G36KT 6SM BLSN BKN020=



000
FTUS43 KABR 072039 AAA
TAFABR
TAF AMD
KABR 072039Z 0721/0818 32032G44KT 6SM -SHSN BKN027 OVC035
      TEMPO 0721/0724 3SM -SHSN
     FM080300 34029G41KT P6SM VCSH OVC030
     FM080900 33025G36KT P6SM BKN030
     FM081500 34024G34KT P6SM SCT030=



000
FTUS43 KABR 072039 AAA
TAFABR
TAF AMD
KABR 072039Z 0721/0818 32032G44KT 6SM -SHSN BKN027 OVC035
      TEMPO 0721/0724 3SM -SHSN
     FM080300 34029G41KT P6SM VCSH OVC030
     FM080900 33025G36KT P6SM BKN030
     FM081500 34024G34KT P6SM SCT030=



000
FTUS43 KABR 071735
TAFATY
TAF
KATY 071735Z 0718/0818 31026G36KT 4SM -SN BLSN OVC025
      TEMPO 0719/0721 1 1/2SM -SN BLSN OVC015
     FM072100 32029G41KT 1/2SM SN BLSN OVC010
     FM080600 34027G38KT 1SM -SN BLSN OVC015
     FM080900 34026G36KT 4SM -SN BLSN OVC015
     FM081500 34026G36KT 5SM BLSN BKN020=



000
FTUS43 KABR 071735
TAFABR
TAF
KABR 071735Z 0718/0818 32031G43KT 5SM -SHSN BKN027 OVC035
      TEMPO 0718/0721 2SM -SHSN
     FM072100 33032G45KT 4SM -SHSN OVC025
     FM080300 34029G41KT P6SM VCSH OVC030
     FM080900 33025G36KT P6SM BKN030
     FM081500 34024G34KT P6SM SCT030=



000
FTUS43 KABR 071735
TAFMBG
TAF
KMBG 071735Z 0718/0818 33034G49KT P6SM VCSH OVC030
     FM072100 33033G46KT P6SM BKN030
     FM080400 33029G40KT P6SM SCT035
     FM080700 33023G32KT P6SM SCT035=



000
FTUS43 KABR 071735
TAFPIR
TAF
KPIR 071735Z 0718/0818 31036G50KT P6SM VCSH OVC040
     FM072200 31034G43KT P6SM BKN040
     FM080300 32030G42KT P6SM SCT040
     FM081000 32024G34KT P6SM SCT040=



000
FTUS43 KABR 071610 AAA
TAFABR
TAF AMD
KABR 071610Z 0716/0812 29025G36KT 4SM -SHSN OVC025
      TEMPO 0716/0719 1 1/2SM -SN
     FM071900 32037G47KT 3SM -SN BLSN OVC025
     FM080200 33029G40KT P6SM BKN040=



000
FTUS43 KABR 071610 AAA
TAFABR
TAF AMD
KABR 071610Z 0716/0812 29025G36KT 4SM -SHSN OVC025
      TEMPO 0716/0719 1 1/2SM -SN
     FM071900 32037G47KT 3SM -SN BLSN OVC025
     FM080200 33029G40KT P6SM BKN040=



000
FTUS43 KABR 071125
TAFABR
TAF
KABR 071125Z 0712/0812 29022G32KT P6SM SCT250
      TEMPO 0715/0716 3SM -SN BKN040
     FM071600 32037G47KT 3/4SM -SN BLSN OVC025
     FM080200 33029G40KT P6SM BKN040=



000
FTUS43 KABR 071125
TAFPIR
TAF
KPIR 071125Z 0712/0812 30025G35KT P6SM BKN040
     FM071500 31039G50KT P6SM BKN040
      TEMPO 0716/0720 2SM -SN BKN025
     FM080100 32028G36KT P6SM SKC=



000
FTUS43 KABR 071125
TAFATY
TAF
KATY 071125Z 0712/0812 29022G32KT P6SM SCT250
      TEMPO 0716/0717 1SM -SN BKN040
     FM071700 33035G47KT 1/4SM SN BLSN OVC010
     FM080200 34030G40KT 1SM -SN BLSN OVC015=



000
FTUS43 KABR 071125
TAFMBG
TAF
KMBG 071125Z 0712/0812 30023G32KT P6SM SCT050
     FM071500 32038G50KT P6SM BKN040
      TEMPO 0715/0719 1SM -SN BKN025
     FM080100 33027G35KT P6SM SKC=



    US Dept of Commerce
    National Oceanic and Atmospheric Administration
    National Weather Service
    1325 East West Highway
    Silver Spring, MD 20910
    Page Author: NWS Internet Services Team
Disclaimer
Information Quality
Credits
Glossary
Privacy Policy
Freedom of Information Act (FOIA)
About Us
Career Opportunities